Aviation Digital Data Service (ADDS)

Output produced by TAFs form (1343 UTC 17 December 2017)
found at http://www.aviationweather.gov/adds/tafs/
 
Forecast for: RODN (KADENA (USAFB-NA, JP)
Text: TAF RODN 170800Z 1708/1814 03012KT 9999 BKN030 QNH3018INS TX18/1805Z TN12/1718Z
Forecast period: 0800 UTC 17 December 2017 to 1400 UTC 18 December 2017
Forecast type: FROM: standard forecast or significant change
Winds: from the NNE (30 degrees) at 14 MPH (12 knots; 6.2 m/s)
Visibility: 6 or more miles (10+ km)
Ceiling: 3000 feet AGL
Clouds: broken clouds at 3000 feet AGL
Weather: no significant weather forecast for this period

Forecast for: ROAH (NAHA (CIV/JASDF), JP)
Text: TAF ROAH 171107Z 1712/1818 04013KT 9999 FEW030 BKN040
Forecast period: 1200 UTC 17 December 2017 to 1800 UTC 18 December 2017
Forecast type: FROM: standard forecast or significant change
Winds: from the NE (40 degrees) at 15 MPH (13 knots; 6.8 m/s)
Visibility: 6 or more miles (10+ km)
Ceiling: 4000 feet AGL
Clouds: few clouds at 3000 feet AGL
broken clouds at 4000 feet AGL
Weather: no significant weather forecast for this period